Terminal Aerodrome Forecast
Issued by NWS

Home | Current Version | Previous Version | Text Only | Print | Product List | Glossary On
Versions: 1 2 3 4 5 6 7 8 9 10 11 12 13 14 15 16 17 18 19 20 21
000
FTUS43 KDLH 261100
TAFHIB
TAF
KHIB 261120Z 2612/2712 27005KT P6SM BKN020
     FM261400 30009G15KT P6SM SCT030
     FM270100 30004KT P6SM SCT100=

USA.gov is the U.S. government's official web portal to all federal, state and local government web resources and services.